createdAt,value
2023-02-05T00:01:16.700Z,3.00
2023-02-05T00:03:45.320Z,2.70
2023-02-05T00:06:14.005Z,3.50
2023-02-05T00:08:42.530Z,3.20
2023-02-05T00:11:11.029Z,2.20
2023-02-05T00:13:42.296Z,3.70
2023-02-05T00:16:13.725Z,2.20
2023-02-05T00:18:42.573Z,1.90
2023-02-05T00:21:12.532Z,3.40
2023-02-05T00:23:41.471Z,2.40
2023-02-05T00:26:14.572Z,2.60
2023-02-05T00:28:43.691Z,2.60
2023-02-05T00:31:18.426Z,2.80
2023-02-05T00:33:48.246Z,3.50
2023-02-05T00:36:18.544Z,3.70
2023-02-05T00:38:48.015Z,3.10
2023-02-05T00:41:17.673Z,2.40
2023-02-05T00:43:46.936Z,2.70
2023-02-05T00:46:15.924Z,2.80
2023-02-05T00:48:45.076Z,2.40
2023-02-05T00:51:13.626Z,2.80
2023-02-05T00:53:42.072Z,2.50
2023-02-05T00:56:10.763Z,2.90
2023-02-05T00:58:39.482Z,2.90
2023-02-05T01:01:08.185Z,1.70
2023-02-05T01:03:36.834Z,2.10
2023-02-05T01:06:06.879Z,2.10
2023-02-05T01:08:35.738Z,4.50
2023-02-05T01:11:09.061Z,3.40
2023-02-05T01:13:38.737Z,3.10
2023-02-05T01:16:08.431Z,2.70
2023-02-05T01:18:37.058Z,4.20
2023-02-05T01:21:06.298Z,2.90
2023-02-05T01:23:34.948Z,3.30
2023-02-05T01:26:03.407Z,3.50
2023-02-05T01:28:31.970Z,3.50
2023-02-05T01:31:00.556Z,2.30
2023-02-05T01:33:29.178Z,2.30
2023-02-05T01:35:57.591Z,3.10
2023-02-05T01:38:26.207Z,2.70
2023-02-05T01:40:54.638Z,3.60
2023-02-05T01:43:23.098Z,3.40
2023-02-05T01:46:06.043Z,2.80
2023-02-05T01:48:40.952Z,4.80
2023-02-05T01:51:12.321Z,2.60
2023-02-05T01:53:43.140Z,1.70
2023-02-05T01:56:31.185Z,2.70
2023-02-05T01:59:15.408Z,3.00
2023-02-05T02:01:44.729Z,3.00
2023-02-05T02:04:21.191Z,1.40
2023-02-05T02:06:49.734Z,1.90
2023-02-05T02:09:18.265Z,3.50
2023-02-05T02:11:47.008Z,2.40
2023-02-05T02:14:16.453Z,2.80
2023-02-05T02:16:45.200Z,4.50
2023-02-05T02:19:26.683Z,4.40
2023-02-05T02:22:25.431Z,2.40
2023-02-05T02:25:15.580Z,3.40
2023-02-05T02:27:55.009Z,3.60
2023-02-05T02:30:52.554Z,2.20
2023-02-05T02:33:29.158Z,3.40
2023-02-05T02:36:15.686Z,3.50
2023-02-05T02:39:08.451Z,4.50
2023-02-05T02:41:44.539Z,5.40
2023-02-05T02:44:19.709Z,6.30
2023-02-05T02:46:59.374Z,4.40
2023-02-05T02:49:34.533Z,2.40
2023-02-05T02:52:07.022Z,3.20
2023-02-05T02:54:37.452Z,2.60
2023-02-05T02:57:08.869Z,3.00
2023-02-05T02:59:41.011Z,2.10
2023-02-05T03:02:13.205Z,2.70
2023-02-05T03:04:46.833Z,2.60
2023-02-05T03:07:22.574Z,3.40
2023-02-05T03:09:57.003Z,2.10
2023-02-05T03:12:25.500Z,2.40
2023-02-05T03:14:54.499Z,2.80
2023-02-05T03:17:24.944Z,2.00
2023-02-05T03:20:03.246Z,3.20
2023-02-05T03:22:31.906Z,3.00
2023-02-05T03:25:02.767Z,4.50
2023-02-05T03:27:33.074Z,2.00
2023-02-05T03:30:02.702Z,2.40
2023-02-05T03:32:58.827Z,2.30
2023-02-05T03:35:43.621Z,2.00
2023-02-05T03:38:40.173Z,2.70
2023-02-05T03:41:21.085Z,2.60
2023-02-05T03:44:06.672Z,2.50
2023-02-05T03:47:09.893Z,2.80
2023-02-05T03:49:53.144Z,3.70
2023-02-05T03:52:32.878Z,1.70
2023-02-05T03:55:20.233Z,2.00
2023-02-05T03:58:09.138Z,3.00
2023-02-05T04:00:38.386Z,2.70
2023-02-05T04:03:07.444Z,2.30
2023-02-05T04:05:36.809Z,3.20
2023-02-05T04:08:06.038Z,2.10
2023-02-05T04:10:39.008Z,2.80
2023-02-05T04:13:07.630Z,2.90
2023-02-05T04:15:36.724Z,4.20
2023-02-05T04:18:08.567Z,4.40
2023-02-05T04:20:37.082Z,2.20
2023-02-05T04:23:05.892Z,2.80
2023-02-05T04:25:37.542Z,4.10
2023-02-05T04:28:08.447Z,5.30
2023-02-05T04:30:37.512Z,2.20
2023-02-05T04:33:06.217Z,3.40
2023-02-05T04:35:35.635Z,6.10
2023-02-05T04:38:04.615Z,5.70
2023-02-05T04:40:33.380Z,5.80
2023-02-05T04:43:01.875Z,4.50
2023-02-05T04:45:31.615Z,5.30
2023-02-05T04:48:01.008Z,4.40
2023-02-05T04:50:29.446Z,1.90
2023-02-05T04:52:58.024Z,1.60
2023-02-05T04:55:26.586Z,3.20
2023-02-05T04:57:55.156Z,3.10
2023-02-05T05:00:24.424Z,1.90
2023-02-05T05:02:53.492Z,3.20
2023-02-05T05:05:22.186Z,3.00
2023-02-05T05:07:50.679Z,1.90
2023-02-05T05:10:19.332Z,2.30
2023-02-05T05:12:47.785Z,2.40
2023-02-05T05:15:17.013Z,2.70
2023-02-05T05:17:45.445Z,2.90
2023-02-05T05:20:13.923Z,2.30
2023-02-05T05:22:42.373Z,2.40
2023-02-05T05:25:11.010Z,3.30
2023-02-05T05:27:39.458Z,2.10
2023-02-05T05:30:08.934Z,3.10
2023-02-05T05:32:37.446Z,2.00
2023-02-05T05:35:06.731Z,3.90
2023-02-05T05:37:35.111Z,2.80
2023-02-05T05:40:22.235Z,3.30
2023-02-05T05:43:09.197Z,3.40
2023-02-05T05:45:37.624Z,2.30
2023-02-05T05:48:06.191Z,4.70
2023-02-05T05:50:34.730Z,3.40
2023-02-05T05:53:03.607Z,3.90
2023-02-05T05:55:32.251Z,2.70
2023-02-05T05:58:01.102Z,2.60
2023-02-05T06:00:29.691Z,2.50
2023-02-05T06:02:58.212Z,2.60
2023-02-05T06:05:27.363Z,3.90
2023-02-05T06:07:55.782Z,4.40
2023-02-05T06:10:24.871Z,3.10
2023-02-05T06:12:53.324Z,2.30
2023-02-05T06:15:22.449Z,3.70
2023-02-05T06:17:50.823Z,3.80
2023-02-05T06:20:19.476Z,3.30
2023-02-05T06:22:48.066Z,2.70
2023-02-05T06:25:16.605Z,2.80
2023-02-05T06:27:45.172Z,3.40
2023-02-05T06:30:13.915Z,2.90
2023-02-05T06:32:42.343Z,2.40
2023-02-05T06:35:10.938Z,3.50
2023-02-05T06:37:47.030Z,2.20
2023-02-05T06:40:18.455Z,1.80
2023-02-05T06:42:47.125Z,2.20
2023-02-05T06:45:15.697Z,2.10
2023-02-05T06:47:44.298Z,4.10
2023-02-05T06:50:13.194Z,3.90
2023-02-05T06:52:41.641Z,4.20
2023-02-05T06:55:10.344Z,4.00
2023-02-05T06:57:38.787Z,3.90
2023-02-05T07:00:08.536Z,3.60
2023-02-05T07:02:37.213Z,4.80
2023-02-05T07:05:06.416Z,12.40
2023-02-05T07:07:35.279Z,8.30
2023-02-05T07:10:04.653Z,6.50
2023-02-05T07:12:33.214Z,12.30
2023-02-05T07:15:01.712Z,8.40
2023-02-05T07:17:30.163Z,8.30
2023-02-05T07:19:59.093Z,7.00
2023-02-05T07:22:27.736Z,6.40
2023-02-05T07:24:56.249Z,7.30
2023-02-05T07:27:24.842Z,6.00
2023-02-05T07:29:53.547Z,4.40
2023-02-05T07:32:22.049Z,5.50
2023-02-05T07:34:50.600Z,5.10
2023-02-05T07:37:21.279Z,3.50
2023-02-05T07:39:50.067Z,4.00
2023-02-05T07:42:18.604Z,3.30
2023-02-05T07:44:50.712Z,6.60
2023-02-05T07:47:19.115Z,5.10
2023-02-05T07:49:47.623Z,5.70
2023-02-05T07:52:16.062Z,7.40
2023-02-05T07:54:44.511Z,6.20
2023-02-05T07:57:13.008Z,4.20
2023-02-05T07:59:41.425Z,3.00
2023-02-05T08:02:11.792Z,4.70
2023-02-05T08:04:40.483Z,4.20
2023-02-05T08:07:12.847Z,5.70
2023-02-05T08:09:41.510Z,3.80
2023-02-05T08:12:10.099Z,5.10
2023-02-05T08:14:38.534Z,9.10
2023-02-05T08:17:07.100Z,10.40
2023-02-05T08:19:35.676Z,9.50
2023-02-05T08:22:04.136Z,10.70
2023-02-05T08:24:32.913Z,10.40
2023-02-05T08:27:01.439Z,12.10
2023-02-05T08:29:29.900Z,9.60
2023-02-05T08:31:58.633Z,7.30
2023-02-05T08:34:27.144Z,8.50
2023-02-05T08:36:57.538Z,10.70
2023-02-05T08:39:26.403Z,6.70
2023-02-05T08:41:56.965Z,7.40
2023-02-05T08:44:25.820Z,7.20
2023-02-05T08:46:54.487Z,8.30
2023-02-05T08:49:22.917Z,7.70
2023-02-05T08:51:51.742Z,9.20
2023-02-05T08:54:20.817Z,6.50
2023-02-05T08:56:51.334Z,7.50
2023-02-05T08:59:20.730Z,6.40
2023-02-05T09:01:49.679Z,9.80
2023-02-05T09:04:22.459Z,11.70
2023-02-05T09:06:51.841Z,12.90
2023-02-05T09:09:20.923Z,15.50
2023-02-05T09:11:50.032Z,14.70
2023-02-05T09:14:19.847Z,15.70
2023-02-05T09:16:48.503Z,17.70
2023-02-05T09:19:16.937Z,9.50
2023-02-05T09:21:45.438Z,13.00
2023-02-05T09:24:13.823Z,11.60
2023-02-05T09:26:42.349Z,9.00
2023-02-05T09:29:10.795Z,13.20
2023-02-05T09:31:41.666Z,12.50
2023-02-05T09:34:10.462Z,11.00
2023-02-05T09:36:40.791Z,10.60
2023-02-05T09:39:18.507Z,11.10
2023-02-05T09:42:07.644Z,8.00
2023-02-05T09:44:51.252Z,8.50
2023-02-05T09:48:01.332Z,5.50
2023-02-05T09:50:31.128Z,5.60
2023-02-05T09:53:08.689Z,6.20
2023-02-05T09:55:41.719Z,6.30
2023-02-05T09:58:27.604Z,4.70
2023-02-05T10:01:06.786Z,5.70
2023-02-05T10:03:45.555Z,8.10
2023-02-05T10:06:27.248Z,9.50
2023-02-05T10:09:33.477Z,7.70
2023-02-05T10:12:10.705Z,7.40
2023-02-05T10:15:03.323Z,8.90
2023-02-05T10:17:52.926Z,8.70
2023-02-05T10:20:24.167Z,8.00
2023-02-05T10:23:14.879Z,11.00
2023-02-05T10:26:12.666Z,8.50
2023-02-05T10:29:01.602Z,9.00
2023-02-05T10:31:50.738Z,8.10
2023-02-05T10:34:49.031Z,9.40
2023-02-05T10:37:20.433Z,8.70
2023-02-05T10:39:49.913Z,8.70
2023-02-05T10:42:47.010Z,9.10
2023-02-05T10:45:21.686Z,8.70
2023-02-05T10:48:17.969Z,8.90
2023-02-05T10:51:05.610Z,7.10
2023-02-05T10:53:36.498Z,8.00
2023-02-05T10:56:06.326Z,7.90
2023-02-05T10:58:41.518Z,7.60
2023-02-05T11:01:18.949Z,8.40
2023-02-05T11:03:59.623Z,9.80
2023-02-05T11:06:32.948Z,9.10
2023-02-05T11:09:01.851Z,7.50
2023-02-05T11:11:32.377Z,8.00
2023-02-05T11:14:05.063Z,7.40
2023-02-05T11:16:41.531Z,7.10
2023-02-05T11:19:25.846Z,6.00
2023-02-05T11:22:00.417Z,5.50
2023-02-05T11:24:39.640Z,5.60
2023-02-05T11:27:30.949Z,4.80
2023-02-05T11:30:48.000Z,6.40
2023-02-05T11:33:23.375Z,6.40
2023-02-05T11:36:08.419Z,4.40
2023-02-05T11:38:43.240Z,4.80
2023-02-05T11:41:15.152Z,4.50
2023-02-05T11:43:50.954Z,3.60
2023-02-05T11:46:23.261Z,3.90
2023-02-05T11:49:05.318Z,6.00
2023-02-05T11:51:36.932Z,4.40
2023-02-05T11:54:20.760Z,4.70
2023-02-05T11:57:30.026Z,4.20
2023-02-05T11:59:58.452Z,3.50
2023-02-05T12:02:29.554Z,4.60
2023-02-05T12:05:24.677Z,3.40
2023-02-05T12:07:58.476Z,3.90
2023-02-05T12:10:51.738Z,2.10
2023-02-05T12:13:31.690Z,3.50
2023-02-05T12:16:26.470Z,3.60
2023-02-05T12:19:20.619Z,5.20
2023-02-05T12:21:51.836Z,4.60
2023-02-05T12:24:38.581Z,4.30
2023-02-05T12:27:47.537Z,5.40
2023-02-05T12:30:28.181Z,4.60
2023-02-05T12:33:30.699Z,4.40
2023-02-05T12:36:18.027Z,3.00
2023-02-05T12:39:44.734Z,3.10
2023-02-05T12:42:24.803Z,4.00
2023-02-05T12:45:23.311Z,4.30
2023-02-05T12:48:10.577Z,3.30
2023-02-05T12:51:03.745Z,4.30
2023-02-05T12:53:40.356Z,5.10
2023-02-05T12:56:11.785Z,4.60
2023-02-05T12:58:46.685Z,3.60
2023-02-05T13:01:21.608Z,4.00
2023-02-05T13:04:01.165Z,5.60
2023-02-05T13:06:37.873Z,7.30
2023-02-05T13:09:18.937Z,6.10
2023-02-05T13:11:56.989Z,7.10
2023-02-05T13:14:49.159Z,18.60
2023-02-05T13:17:22.780Z,4.30
2023-02-05T13:21:10.888Z,15.10
2023-02-05T13:24:01.810Z,5.10
2023-02-05T13:26:58.164Z,9.40
2023-02-05T13:29:35.459Z,4.60
2023-02-05T13:32:15.836Z,3.90
2023-02-05T13:34:44.949Z,5.30
2023-02-05T13:37:30.072Z,4.00
2023-02-05T13:40:19.679Z,3.60
2023-02-05T13:43:03.260Z,3.90
2023-02-05T13:45:59.957Z,3.50
2023-02-05T13:48:49.832Z,3.30
2023-02-05T13:51:56.368Z,3.90
2023-02-05T13:55:05.113Z,3.70
2023-02-05T13:57:33.507Z,4.40
2023-02-05T14:00:05.247Z,4.60
2023-02-05T14:02:49.722Z,5.80
2023-02-05T14:05:32.645Z,5.00
2023-02-05T14:08:03.451Z,4.50
2023-02-05T14:10:42.388Z,3.60
2023-02-05T14:13:19.787Z,4.70
2023-02-05T14:15:49.232Z,4.20
2023-02-05T14:18:40.240Z,5.90
2023-02-05T14:21:30.365Z,3.70
2023-02-05T14:24:00.287Z,3.20
2023-02-05T14:26:52.011Z,5.50
2023-02-05T14:29:49.921Z,9.70
2023-02-05T14:32:27.720Z,6.20
2023-02-05T14:35:26.402Z,4.30
2023-02-05T14:38:02.760Z,4.60
2023-02-05T14:40:36.023Z,3.50
2023-02-05T14:43:22.735Z,3.20
2023-02-05T14:45:53.318Z,3.90
2023-02-05T14:48:32.958Z,2.70
2023-02-05T14:51:19.429Z,3.90
2023-02-05T14:53:58.015Z,4.20
2023-02-05T14:56:35.023Z,2.80
2023-02-05T14:59:29.436Z,2.60
2023-02-05T15:02:00.116Z,4.00
2023-02-05T15:04:35.261Z,4.20
2023-02-05T15:07:18.388Z,4.00
2023-02-05T15:10:07.627Z,3.00
2023-02-05T15:12:55.264Z,4.20
2023-02-05T15:15:49.551Z,4.20
2023-02-05T15:18:27.738Z,3.40
2023-02-05T15:20:57.880Z,3.80
2023-02-05T15:23:46.677Z,4.00
2023-02-05T15:26:28.124Z,4.90
2023-02-05T15:29:03.644Z,4.60
2023-02-05T15:31:54.955Z,5.80
2023-02-05T15:34:35.270Z,6.10
2023-02-05T15:37:09.797Z,6.30
2023-02-05T15:39:51.793Z,6.80
2023-02-05T15:42:33.110Z,5.60
2023-02-05T15:45:45.152Z,9.50
2023-02-05T15:48:19.577Z,8.30
2023-02-05T15:50:52.253Z,9.30
2023-02-05T15:53:41.878Z,11.70
2023-02-05T15:56:27.653Z,9.90
2023-02-05T15:59:01.173Z,11.50
2023-02-05T16:01:34.470Z,11.30
2023-02-05T16:04:21.063Z,12.30
2023-02-05T16:06:50.215Z,18.30
2023-02-05T16:09:21.149Z,21.70
2023-02-05T16:11:50.582Z,27.50
2023-02-05T16:14:28.666Z,21.20
2023-02-05T16:17:11.329Z,48.20
2023-02-05T16:19:48.504Z,61.50
2023-02-05T16:22:24.425Z,41.00
2023-02-05T16:24:58.461Z,52.50
2023-02-05T16:27:38.060Z,79.30
2023-02-05T16:30:17.486Z,108.90
2023-02-05T16:32:48.519Z,91.20
2023-02-05T16:35:27.143Z,51.30
2023-02-05T16:37:57.414Z,22.30
2023-02-05T16:40:46.829Z,88.10
2023-02-05T16:43:38.403Z,98.60
2023-02-05T16:46:06.984Z,60.80
2023-02-05T16:48:38.985Z,61.00
2023-02-05T16:51:34.208Z,96.70
2023-02-05T16:54:25.995Z,71.90
2023-02-05T16:57:06.755Z,92.80
2023-02-05T17:00:19.253Z,194.30
2023-02-05T17:02:47.792Z,120.60
2023-02-05T17:05:26.992Z,100.20
2023-02-05T17:08:10.306Z,86.90
2023-02-05T17:10:54.219Z,87.80
2023-02-05T17:13:49.313Z,77.40
2023-02-05T17:16:27.495Z,70.60
2023-02-05T17:19:01.090Z,35.00
2023-02-05T17:21:34.669Z,76.90
2023-02-05T17:24:09.287Z,91.30
2023-02-05T17:26:41.161Z,46.30
2023-02-05T17:29:16.018Z,45.30
2023-02-05T17:31:44.619Z,33.00
2023-02-05T17:34:13.349Z,38.50
2023-02-05T17:36:41.835Z,41.10
2023-02-05T17:39:10.361Z,26.70
2023-02-05T17:41:57.299Z,23.90
2023-02-05T17:44:25.743Z,20.90
2023-02-05T17:46:54.372Z,29.70
2023-02-05T17:49:23.177Z,22.10
2023-02-05T17:51:51.715Z,20.10
2023-02-05T17:54:23.269Z,21.60
2023-02-05T17:56:57.021Z,26.30
2023-02-05T17:59:26.303Z,27.90
2023-02-05T18:01:54.795Z,71.40
2023-02-05T18:04:23.306Z,97.20
2023-02-05T18:06:52.084Z,36.50
2023-02-05T18:09:20.650Z,52.90
2023-02-05T18:11:49.451Z,88.10
2023-02-05T18:14:18.027Z,76.70
2023-02-05T18:16:46.801Z,39.00
2023-02-05T18:19:15.306Z,23.10
2023-02-05T18:21:46.406Z,28.30
2023-02-05T18:24:15.375Z,32.80
2023-02-05T18:26:44.230Z,29.40
2023-02-05T18:29:12.687Z,29.80
2023-02-05T18:31:41.190Z,24.40
2023-02-05T18:34:09.903Z,29.00
2023-02-05T18:36:38.451Z,22.40
2023-02-05T18:39:06.987Z,17.40
2023-02-05T18:41:35.580Z,18.70
2023-02-05T18:44:04.202Z,24.20
2023-02-05T18:46:32.607Z,18.80
2023-02-05T18:49:01.407Z,17.60
2023-02-05T18:51:29.946Z,26.70
2023-02-05T18:53:59.133Z,24.60
2023-02-05T18:56:30.097Z,20.60
2023-02-05T18:59:03.269Z,20.80
2023-02-05T19:01:38.475Z,26.90
2023-02-05T19:04:10.251Z,17.40
2023-02-05T19:06:42.066Z,21.90
2023-02-05T19:09:11.597Z,21.10
2023-02-05T19:11:41.767Z,19.80
2023-02-05T19:14:16.765Z,15.60
2023-02-05T19:16:45.692Z,18.40
2023-02-05T19:19:21.244Z,16.20
2023-02-05T19:21:54.960Z,11.40
2023-02-05T19:24:23.840Z,18.60
2023-02-05T19:26:56.687Z,17.20
2023-02-05T19:29:26.506Z,22.70
2023-02-05T19:31:55.136Z,17.30
2023-02-05T19:34:24.282Z,9.40
2023-02-05T19:36:52.710Z,8.80
2023-02-05T19:39:21.145Z,5.00
2023-02-05T19:41:51.582Z,5.10
2023-02-05T19:44:20.492Z,7.70
2023-02-05T19:46:49.045Z,7.70
2023-02-05T19:49:22.230Z,7.40
2023-02-05T19:51:54.623Z,8.70
2023-02-05T19:54:24.086Z,18.80
2023-02-05T19:56:52.816Z,15.40
2023-02-05T19:59:21.475Z,15.30
2023-02-05T20:01:50.258Z,12.50
2023-02-05T20:04:22.683Z,13.90
2023-02-05T20:06:56.351Z,13.60
2023-02-05T20:09:26.342Z,12.10
2023-02-05T20:11:55.973Z,17.70
2023-02-05T20:14:25.065Z,14.00
2023-02-05T20:16:54.105Z,19.10
2023-02-05T20:19:22.625Z,14.00
2023-02-05T20:21:51.458Z,14.00
2023-02-05T20:24:19.933Z,18.30
2023-02-05T20:26:48.740Z,15.80
2023-02-05T20:29:36.355Z,12.60
2023-02-05T20:32:05.843Z,13.90
2023-02-05T20:34:36.353Z,13.10
2023-02-05T20:37:09.284Z,14.40
2023-02-05T20:39:42.847Z,11.40
2023-02-05T20:42:15.418Z,10.40
2023-02-05T20:44:44.582Z,14.50
2023-02-05T20:47:14.759Z,13.80
2023-02-05T20:49:43.739Z,11.10
2023-02-05T20:52:12.559Z,11.70
2023-02-05T20:54:41.195Z,14.40
2023-02-05T20:57:09.690Z,13.00
2023-02-05T20:59:38.861Z,14.50
2023-02-05T21:02:08.004Z,12.40
2023-02-05T21:04:37.809Z,9.80
2023-02-05T21:07:06.388Z,10.20
2023-02-05T21:09:35.160Z,11.10
2023-02-05T21:12:03.789Z,10.60
2023-02-05T21:14:32.424Z,12.20
2023-02-05T21:17:00.889Z,8.70
2023-02-05T21:19:29.384Z,19.20
2023-02-05T21:21:57.981Z,27.00
2023-02-05T21:24:26.416Z,22.70
2023-02-05T21:26:54.924Z,18.70
2023-02-05T21:29:23.627Z,14.80
2023-02-05T21:31:55.977Z,14.90
2023-02-05T21:34:27.901Z,15.20
2023-02-05T21:36:56.845Z,12.00
2023-02-05T21:39:25.769Z,11.00
2023-02-05T21:41:55.039Z,13.80
2023-02-05T21:44:24.450Z,13.60
2023-02-05T21:46:54.923Z,23.00
2023-02-05T21:49:23.333Z,44.80
2023-02-05T21:51:53.543Z,41.30
2023-02-05T21:54:25.917Z,46.10
2023-02-05T21:56:54.716Z,45.00
2023-02-05T21:59:23.825Z,41.00
2023-02-05T22:01:52.358Z,24.60
2023-02-05T22:04:21.103Z,21.60
2023-02-05T22:06:50.988Z,19.10
2023-02-05T22:09:19.554Z,25.70
2023-02-05T22:11:51.397Z,34.40
2023-02-05T22:14:19.935Z,21.10
2023-02-05T22:16:48.559Z,28.90
2023-02-05T22:19:17.077Z,28.70
2023-02-05T22:21:45.612Z,27.00
2023-02-05T22:24:16.387Z,13.60
2023-02-05T22:26:46.625Z,18.80
2023-02-05T22:29:18.493Z,13.70
2023-02-05T22:31:54.567Z,16.10
2023-02-05T22:34:23.350Z,13.90
2023-02-05T22:36:51.786Z,11.20
2023-02-05T22:39:20.364Z,15.70
2023-02-05T22:41:49.098Z,11.70
2023-02-05T22:44:17.642Z,24.40
2023-02-05T22:46:46.056Z,15.50
2023-02-05T22:49:17.503Z,14.60
2023-02-05T22:51:46.346Z,14.40
2023-02-05T22:54:15.524Z,14.10
2023-02-05T22:56:45.002Z,12.70
2023-02-05T22:59:13.750Z,15.30
2023-02-05T23:01:42.284Z,15.10
2023-02-05T23:04:11.325Z,12.00
2023-02-05T23:06:42.675Z,10.00
2023-02-05T23:09:17.249Z,7.50
2023-02-05T23:11:46.606Z,11.10
2023-02-05T23:14:17.553Z,12.30
2023-02-05T23:16:47.500Z,9.70
2023-02-05T23:19:19.327Z,11.10
2023-02-05T23:21:48.247Z,14.10
2023-02-05T23:24:17.331Z,11.90
2023-02-05T23:26:48.256Z,10.00
2023-02-05T23:29:17.817Z,14.40
2023-02-05T23:31:46.800Z,15.70
2023-02-05T23:34:15.581Z,12.30
2023-02-05T23:36:44.091Z,11.10
2023-02-05T23:39:12.615Z,11.00
2023-02-05T23:41:41.216Z,9.10
2023-02-05T23:44:19.004Z,14.50
2023-02-05T23:46:49.019Z,10.90
2023-02-05T23:49:21.267Z,10.80
2023-02-05T23:51:54.874Z,10.60
2023-02-05T23:54:24.340Z,13.90
2023-02-05T23:56:52.795Z,19.70
2023-02-05T23:59:21.340Z,14.00
